createdAt,value
2017-07-19T00:00:03.717Z,18.7
2017-07-19T00:15:04.096Z,18.5
2017-07-19T00:30:02.833Z,18.2
2017-07-19T00:45:03.393Z,18.4
2017-07-19T01:00:06.180Z,18.1
2017-07-19T01:15:03.277Z,17.9
2017-07-19T01:30:04.856Z,17.9
2017-07-19T01:45:03.422Z,17.6
2017-07-19T02:00:05.945Z,17.4
2017-07-19T02:15:03.425Z,17.6
2017-07-19T02:30:03.759Z,17.3
2017-07-19T02:45:02.552Z,17.6
2017-07-19T03:00:03.147Z,17.5
2017-07-19T03:15:02.727Z,17.2
2017-07-19T03:30:03.405Z,17.6
2017-07-19T03:45:02.987Z,17.3
2017-07-19T04:00:02.623Z,17.4
2017-07-19T04:15:03.186Z,17.5
2017-07-19T04:30:02.823Z,17.5
2017-07-19T04:45:05.269Z,17.8
2017-07-19T05:00:03.236Z,18.1
2017-07-19T05:15:02.826Z,18.3
2017-07-19T05:30:03.624Z,18.3
2017-07-19T05:45:03.487Z,18.7
2017-07-19T06:00:03.933Z,18.9
2017-07-19T06:15:02.628Z,19.3
2017-07-19T06:30:04.059Z,20.1
2017-07-19T06:45:02.601Z,20
2017-07-19T07:00:03.245Z,19.9
2017-07-19T07:15:02.802Z,20.4
2017-07-19T07:30:03.663Z,20.4
2017-07-19T07:45:03.917Z,20.7
2017-07-19T08:00:02.586Z,21.6
2017-07-19T08:15:03.231Z,22.8
2017-07-19T08:30:02.983Z,23.8
2017-07-19T08:45:02.525Z,25.2
2017-07-19T09:00:03.137Z,26.6
2017-07-19T09:15:02.729Z,27.4
2017-07-19T09:30:03.359Z,28.4
2017-07-19T09:45:02.944Z,29.2
2017-07-19T10:00:02.547Z,30.1
2017-07-19T10:15:03.138Z,31.2
2017-07-19T10:30:02.775Z,31.9
2017-07-19T10:45:03.490Z,33
2017-07-19T11:00:03.119Z,33.8
2017-07-19T11:15:02.697Z,32.9
2017-07-19T11:30:03.518Z,34.4
2017-07-19T11:45:03.090Z,34.6
2017-07-19T12:00:02.709Z,34.4
2017-07-19T12:15:03.331Z,34.6
2017-07-19T12:30:02.963Z,34.4
2017-07-19T12:45:02.526Z,35.1
2017-07-19T13:00:03.068Z,35
2017-07-19T13:15:02.643Z,35.4
2017-07-19T13:30:03.296Z,35.5
2017-07-19T13:45:02.882Z,35.1
2017-07-19T14:00:03.684Z,35.9
2017-07-19T14:15:03.296Z,35.5
2017-07-19T14:30:02.913Z,35.3
2017-07-19T14:45:02.532Z,33.5
2017-07-19T15:00:03.069Z,34.1
2017-07-19T15:15:02.730Z,33.7
2017-07-19T15:30:04.868Z,32.8
2017-07-19T15:45:03.414Z,31.9
2017-07-19T16:00:03.035Z,31.8
2017-07-19T16:15:02.599Z,30.9
2017-07-19T16:30:03.252Z,30.6
2017-07-19T16:45:02.840Z,29.9
2017-07-19T17:00:03.451Z,29.8
2017-07-19T17:15:02.993Z,29.2
2017-07-19T17:30:02.760Z,28.8
2017-07-19T17:45:03.349Z,27.6
2017-07-19T18:00:02.879Z,27.1
2017-07-19T18:30:02.726Z,26.2
2017-07-19T18:45:03.328Z,25.4
2017-07-19T19:00:02.881Z,24
2017-07-19T19:15:03.489Z,24.1
2017-07-19T19:30:03.155Z,23.2
2017-07-19T19:45:02.820Z,23.2
2017-07-19T20:00:03.394Z,22.8
2017-07-19T20:15:03.007Z,22.2
2017-07-19T20:30:02.690Z,22.1
2017-07-19T20:45:03.326Z,21.8
2017-07-19T21:00:02.926Z,21.5
2017-07-19T21:15:02.566Z,21.2
2017-07-19T21:30:03.228Z,21.1
2017-07-19T21:45:02.863Z,20.4
2017-07-19T22:00:03.432Z,20.7
2017-07-19T22:15:03.031Z,20.4
2017-07-19T22:30:02.715Z,20.4
2017-07-19T22:45:03.338Z,21.4
2017-07-19T23:00:02.933Z,21.9
2017-07-19T23:15:02.524Z,21.1
2017-07-19T23:30:03.247Z,20.2
2017-07-19T23:45:03.190Z,19.9
